createdAt,value
2023-05-05T00:01:38.153Z,54.65
2023-05-05T00:04:40.721Z,55.01
2023-05-05T00:07:43.276Z,55.54
2023-05-05T00:10:46.564Z,53.80
2023-05-05T00:13:49.102Z,54.59
2023-05-05T00:16:51.532Z,54.42
2023-05-05T00:19:54.584Z,55.13
2023-05-05T00:22:57.537Z,56.79
2023-05-05T00:26:00.060Z,56.07
2023-05-05T00:29:02.495Z,56.73
2023-05-05T00:32:05.151Z,56.93
2023-05-05T00:35:08.777Z,57.77
2023-05-05T00:38:11.344Z,56.74
2023-05-05T00:41:13.984Z,58.38
2023-05-05T00:44:16.819Z,58.93
2023-05-05T00:47:19.313Z,59.13
2023-05-05T00:50:24.303Z,59.14
2023-05-05T00:53:27.170Z,59.80
2023-05-05T00:56:29.694Z,58.66
2023-05-05T00:59:34.980Z,58.85
2023-05-05T01:02:39.272Z,59.71
2023-05-05T01:06:17.074Z,60.47
2023-05-05T01:09:44.801Z,60.42
2023-05-05T01:13:12.441Z,59.31
2023-05-05T01:16:18.914Z,60.64
2023-05-05T01:19:52.565Z,59.28
2023-05-05T01:23:00.593Z,61.19
2023-05-05T01:26:09.108Z,61.06
2023-05-05T01:29:46.705Z,61.70
2023-05-05T01:32:51.091Z,60.82
2023-05-05T01:35:58.378Z,62.07
2023-05-05T01:39:01.926Z,62.57
2023-05-05T01:42:09.385Z,62.05
2023-05-05T01:45:12.096Z,62.50
2023-05-05T01:48:16.546Z,62.32
2023-05-05T01:51:19.739Z,61.00
2023-05-05T01:54:24.830Z,61.94
2023-05-05T01:57:27.265Z,62.96
2023-05-05T02:00:30.002Z,63.08
2023-05-05T02:03:34.088Z,63.03
2023-05-05T02:06:36.831Z,63.60
2023-05-05T02:09:39.375Z,63.08
2023-05-05T02:12:44.599Z,63.05
2023-05-05T02:15:47.167Z,62.92
2023-05-05T02:18:49.613Z,63.01
2023-05-05T02:21:52.144Z,64.10
2023-05-05T02:24:54.778Z,64.95
2023-05-05T02:27:57.367Z,64.75
2023-05-05T02:31:00.249Z,64.41
2023-05-05T02:34:03.348Z,64.75
2023-05-05T02:37:11.468Z,64.54
2023-05-05T02:40:18.622Z,65.32
2023-05-05T02:43:22.527Z,65.02
2023-05-05T02:46:25.400Z,63.65
2023-05-05T02:49:27.957Z,64.47
2023-05-05T02:52:34.993Z,65.83
2023-05-05T02:55:43.112Z,65.54
2023-05-05T02:58:52.681Z,64.11
2023-05-05T03:02:10.920Z,65.22
2023-05-05T03:05:17.768Z,65.60
2023-05-05T03:08:28.584Z,65.48
2023-05-05T03:11:41.442Z,67.04
2023-05-05T03:14:45.119Z,66.13
2023-05-05T03:17:50.833Z,66.34
2023-05-05T03:20:53.468Z,66.64
2023-05-05T03:23:57.797Z,66.24
2023-05-05T03:27:00.631Z,66.53
2023-05-05T03:30:09.345Z,67.25
2023-05-05T03:33:17.212Z,67.72
2023-05-05T03:36:20.057Z,65.81
2023-05-05T03:39:22.895Z,65.46
2023-05-05T03:42:26.436Z,65.99
2023-05-05T03:45:29.381Z,65.03
2023-05-05T03:48:32.385Z,65.85
2023-05-05T03:51:36.727Z,66.22
2023-05-05T03:54:39.463Z,66.35
2023-05-05T03:57:42.453Z,65.49
2023-05-05T04:00:44.966Z,65.85
2023-05-05T04:03:48.130Z,66.95
2023-05-05T04:06:50.880Z,65.91
2023-05-05T04:09:56.160Z,65.36
2023-05-05T04:13:01.310Z,65.06
2023-05-05T04:16:06.312Z,65.43
2023-05-05T04:19:09.407Z,66.67
2023-05-05T04:22:12.114Z,65.64
2023-05-05T04:25:14.872Z,64.95
2023-05-05T04:28:19.060Z,65.18
2023-05-05T04:31:23.178Z,64.78
2023-05-05T04:34:26.942Z,65.62
2023-05-05T04:37:30.241Z,65.17
2023-05-05T04:40:33.937Z,63.70
2023-05-05T04:43:36.916Z,64.57
2023-05-05T04:46:48.748Z,65.48
2023-05-05T04:49:52.023Z,63.95
2023-05-05T04:52:54.785Z,62.88
2023-05-05T04:55:57.994Z,60.96
2023-05-05T04:59:00.648Z,62.21
2023-05-05T05:02:03.569Z,61.77
2023-05-05T05:05:06.784Z,62.18
2023-05-05T05:08:09.477Z,62.10
2023-05-05T05:11:12.230Z,61.98
2023-05-05T05:14:15.956Z,60.55
2023-05-05T05:17:22.667Z,59.89
2023-05-05T05:20:29.881Z,60.10
2023-05-05T05:23:32.582Z,59.22
2023-05-05T05:26:35.333Z,59.26
2023-05-05T05:29:38.446Z,60.19
2023-05-05T05:32:41.208Z,57.78
2023-05-05T05:35:44.886Z,57.81
2023-05-05T05:38:50.202Z,56.39
2023-05-05T05:41:52.916Z,52.42
2023-05-05T05:44:58.036Z,53.74
2023-05-05T05:48:04.143Z,55.96
2023-05-05T05:51:08.225Z,53.30
2023-05-05T05:54:14.377Z,52.63
2023-05-05T05:57:19.097Z,53.36
2023-05-05T06:00:22.114Z,51.74
2023-05-05T06:03:32.279Z,53.50
2023-05-05T06:06:34.960Z,53.06
2023-05-05T06:09:37.513Z,51.33
2023-05-05T06:12:40.334Z,51.40
2023-05-05T06:15:43.029Z,50.59
2023-05-05T06:18:50.905Z,51.65
2023-05-05T06:21:57.833Z,51.50
2023-05-05T06:25:00.940Z,51.28
2023-05-05T06:28:07.331Z,52.05
2023-05-05T06:31:10.408Z,52.02
2023-05-05T06:34:12.868Z,50.40
2023-05-05T06:37:15.484Z,50.79
2023-05-05T06:40:18.163Z,50.46
2023-05-05T06:43:21.039Z,50.40
2023-05-05T06:46:29.703Z,49.31
2023-05-05T06:49:32.780Z,51.77
2023-05-05T06:52:35.275Z,50.69
2023-05-05T06:55:38.177Z,49.79
2023-05-05T06:58:41.518Z,48.23
2023-05-05T07:01:44.022Z,49.05
2023-05-05T07:04:46.712Z,48.37
2023-05-05T07:07:56.264Z,46.89
2023-05-05T07:11:01.066Z,48.02
2023-05-05T07:14:03.715Z,48.30
2023-05-05T07:17:06.577Z,47.49
2023-05-05T07:20:10.223Z,44.79
2023-05-05T07:23:13.168Z,45.04
2023-05-05T07:26:16.259Z,43.94
2023-05-05T07:29:18.792Z,45.93
2023-05-05T07:32:21.393Z,44.45
2023-05-05T07:35:23.970Z,44.18
2023-05-05T07:38:26.699Z,42.43
2023-05-05T07:41:30.316Z,43.20
2023-05-05T07:44:33.814Z,42.03
2023-05-05T07:47:36.972Z,41.41
2023-05-05T07:50:39.770Z,42.66
2023-05-05T07:53:43.253Z,41.17
2023-05-05T07:56:46.069Z,41.57
2023-05-05T07:59:48.636Z,41.30
2023-05-05T08:02:51.339Z,41.19
2023-05-05T08:05:56.154Z,40.32
2023-05-05T08:09:00.265Z,39.90
2023-05-05T08:12:09.555Z,40.99
2023-05-05T08:15:12.820Z,42.67
2023-05-05T08:18:15.480Z,41.18
2023-05-05T08:21:18.782Z,38.56
2023-05-05T08:24:21.334Z,38.55
2023-05-05T08:27:26.626Z,40.26
2023-05-05T08:30:29.458Z,37.62
2023-05-05T08:33:32.700Z,37.70
2023-05-05T08:36:37.844Z,39.72
2023-05-05T08:39:40.367Z,39.33
2023-05-05T08:42:43.217Z,38.30
2023-05-05T08:45:46.310Z,39.91
2023-05-05T08:48:49.814Z,38.64
2023-05-05T08:51:56.555Z,38.29
2023-05-05T08:55:22.830Z,36.73
2023-05-05T08:58:28.273Z,36.28
2023-05-05T09:01:32.656Z,38.68
2023-05-05T09:04:35.366Z,34.66
2023-05-05T09:07:38.607Z,37.67
2023-05-05T09:10:41.879Z,37.60
2023-05-05T09:13:44.644Z,37.21
2023-05-05T09:16:47.141Z,34.33
2023-05-05T09:20:15.806Z,33.62
2023-05-05T09:23:19.866Z,33.76
2023-05-05T09:26:22.815Z,36.53
2023-05-05T09:29:25.492Z,33.91
2023-05-05T09:32:30.592Z,33.77
2023-05-05T09:35:55.278Z,34.05
2023-05-05T09:39:05.012Z,34.20
2023-05-05T09:42:18.122Z,33.47
2023-05-05T09:45:20.640Z,34.41
2023-05-05T09:48:28.647Z,35.36
2023-05-05T09:51:31.881Z,34.04
2023-05-05T09:54:34.833Z,30.99
2023-05-05T09:57:37.315Z,31.41
2023-05-05T10:00:40.082Z,31.38
2023-05-05T10:03:54.426Z,30.31
2023-05-05T10:06:57.665Z,30.10
2023-05-05T10:10:00.226Z,30.54
2023-05-05T10:13:02.865Z,30.94
2023-05-05T10:16:06.019Z,33.56
2023-05-05T10:19:08.483Z,31.15
2023-05-05T10:22:11.038Z,30.24
2023-05-05T10:25:14.014Z,29.61
2023-05-05T10:28:19.392Z,30.01
2023-05-05T10:31:29.758Z,28.22
2023-05-05T10:34:39.623Z,27.90
2023-05-05T10:37:42.117Z,27.19
2023-05-05T10:40:46.193Z,28.84
2023-05-05T10:43:49.240Z,28.79
2023-05-05T10:46:54.310Z,25.85
2023-05-05T10:50:15.398Z,25.35
2023-05-05T10:53:32.180Z,24.10
2023-05-05T10:56:34.785Z,23.84
2023-05-05T10:59:37.808Z,23.64
2023-05-05T11:02:41.476Z,23.12
2023-05-05T11:06:08.079Z,25.05
2023-05-05T11:09:29.370Z,24.49
2023-05-05T11:12:32.644Z,25.27
2023-05-05T11:15:38.437Z,25.67
2023-05-05T11:18:44.468Z,23.71
2023-05-05T11:22:13.688Z,22.81
2023-05-05T11:25:38.276Z,20.69
2023-05-05T11:29:00.991Z,22.87
2023-05-05T11:32:13.959Z,21.58
2023-05-05T11:35:16.531Z,19.33
2023-05-05T11:38:19.279Z,20.31
2023-05-05T11:41:33.903Z,19.70
2023-05-05T11:44:39.161Z,19.71
2023-05-05T11:47:43.888Z,18.83
2023-05-05T11:50:46.964Z,18.43
2023-05-05T11:53:49.962Z,18.39
2023-05-05T11:56:53.895Z,17.14
2023-05-05T12:00:04.443Z,16.92
2023-05-05T12:03:08.839Z,15.96
2023-05-05T12:06:11.422Z,17.31
2023-05-05T12:09:32.710Z,17.99
2023-05-05T12:12:40.991Z,18.57
2023-05-05T12:15:43.392Z,18.62
2023-05-05T12:18:47.506Z,17.52
2023-05-05T12:21:50.783Z,17.75
2023-05-05T12:25:02.280Z,18.44
2023-05-05T12:28:06.808Z,17.79
2023-05-05T12:31:09.641Z,18.83
2023-05-05T12:34:12.164Z,17.27
2023-05-05T12:37:16.502Z,18.09
2023-05-05T12:40:47.753Z,17.16
2023-05-05T12:44:00.002Z,16.44
2023-05-05T12:47:02.747Z,16.67
2023-05-05T12:50:05.959Z,18.63
2023-05-05T12:53:09.124Z,20.34
2023-05-05T12:56:31.164Z,19.11
2023-05-05T12:59:33.870Z,19.01
2023-05-05T13:02:36.680Z,19.70
2023-05-05T13:05:41.189Z,17.92
2023-05-05T13:08:44.673Z,19.31
2023-05-05T13:11:47.257Z,17.79
2023-05-05T13:14:49.985Z,17.65
2023-05-05T13:18:01.112Z,19.05
2023-05-05T13:21:03.687Z,18.33
2023-05-05T13:24:21.320Z,17.67
2023-05-05T13:27:28.692Z,20.35
2023-05-05T13:30:32.056Z,20.37
2023-05-05T13:33:34.918Z,20.00
2023-05-05T13:36:37.877Z,21.15
2023-05-05T13:39:40.564Z,20.58
2023-05-05T13:42:43.107Z,22.20
2023-05-05T13:45:45.815Z,20.51
2023-05-05T13:48:48.747Z,21.13
2023-05-05T13:51:53.328Z,21.21
2023-05-05T13:54:58.907Z,19.86
2023-05-05T13:58:01.570Z,20.62
2023-05-05T14:01:04.495Z,20.37
2023-05-05T14:04:07.333Z,20.70
2023-05-05T14:07:10.167Z,21.36
2023-05-05T14:10:13.941Z,21.02
2023-05-05T14:13:16.388Z,20.96
2023-05-05T14:16:18.936Z,23.50
2023-05-05T14:34:41.653Z,19.91
2023-05-05T14:37:44.339Z,21.52
2023-05-05T14:40:46.929Z,22.20
2023-05-05T14:43:49.681Z,23.11
2023-05-05T14:46:52.577Z,20.40
2023-05-05T14:53:36.391Z,21.99
2023-05-05T15:00:54.656Z,20.78
2023-05-05T15:03:57.687Z,19.97
2023-05-05T15:07:00.871Z,21.76
2023-05-05T15:10:05.011Z,23.13
2023-05-05T15:13:07.740Z,21.22
2023-05-05T15:16:10.599Z,23.15
2023-05-05T15:19:25.881Z,22.71
2023-05-05T15:22:32.109Z,22.32
2023-05-05T15:25:37.601Z,21.82
2023-05-05T15:28:40.656Z,20.94
2023-05-05T15:31:43.521Z,22.73
2023-05-05T15:34:50.227Z,23.01
2023-05-05T15:37:56.057Z,21.84
2023-05-05T15:41:00.297Z,22.46
2023-05-05T15:44:04.626Z,23.22
2023-05-05T15:47:10.999Z,24.49
2023-05-05T15:50:14.196Z,22.80
2023-05-05T15:53:17.750Z,23.53
2023-05-05T15:56:21.111Z,26.00
2023-05-05T15:59:24.376Z,24.55
2023-05-05T16:02:27.091Z,23.99
2023-05-05T16:05:30.364Z,23.68
2023-05-05T16:08:33.025Z,26.04
2023-05-05T16:11:37.256Z,26.30
2023-05-05T16:14:40.099Z,26.25
2023-05-05T16:17:43.164Z,25.44
2023-05-05T16:20:46.013Z,26.76
2023-05-05T16:23:50.339Z,26.09
2023-05-05T16:26:53.187Z,27.08
2023-05-05T16:29:57.688Z,27.22
2023-05-05T16:33:02.042Z,28.59
2023-05-05T16:36:05.067Z,28.78
2023-05-05T16:39:07.735Z,28.03
2023-05-05T16:42:10.222Z,28.67
2023-05-05T16:45:13.796Z,27.72
2023-05-05T16:48:17.698Z,27.86
2023-05-05T16:51:20.571Z,27.88
2023-05-05T16:54:23.349Z,28.49
2023-05-05T16:57:26.236Z,28.61
2023-05-05T17:00:28.710Z,29.95
2023-05-05T17:03:31.340Z,29.79
2023-05-05T17:06:33.931Z,30.13
2023-05-05T17:09:36.768Z,31.44
2023-05-05T17:12:40.223Z,31.17
2023-05-05T17:15:44.574Z,30.92
2023-05-05T17:18:47.583Z,31.69
2023-05-05T17:21:50.234Z,31.67
2023-05-05T17:24:52.804Z,31.89
2023-05-05T17:27:56.381Z,31.99
2023-05-05T17:31:01.653Z,32.60
2023-05-05T17:34:04.303Z,32.81
2023-05-05T17:37:07.525Z,33.67
2023-05-05T17:40:10.564Z,32.89
2023-05-05T17:43:13.346Z,33.76
2023-05-05T17:46:15.896Z,34.23
2023-05-05T17:49:18.576Z,34.36
2023-05-05T17:52:21.179Z,35.68
2023-05-05T17:55:26.616Z,37.93
2023-05-05T17:58:29.193Z,39.06
2023-05-05T18:01:31.765Z,38.64
2023-05-05T18:04:36.571Z,39.29
2023-05-05T18:07:39.146Z,39.17
2023-05-05T18:10:42.081Z,39.55
2023-05-05T18:13:44.601Z,40.01
2023-05-05T18:16:52.219Z,40.14
2023-05-05T18:19:54.833Z,41.75
2023-05-05T18:22:57.172Z,42.66
2023-05-05T18:25:59.924Z,42.46
2023-05-05T18:29:02.633Z,43.58
2023-05-05T18:32:10.893Z,44.03
2023-05-05T18:35:14.080Z,44.60
2023-05-05T18:38:16.848Z,44.74
2023-05-05T18:41:19.631Z,46.34
2023-05-05T18:44:22.538Z,46.22
2023-05-05T18:47:26.334Z,46.30
2023-05-05T18:50:29.035Z,48.41
2023-05-05T18:53:31.857Z,48.37
2023-05-05T18:56:34.337Z,48.37
2023-05-05T18:59:36.789Z,49.19
2023-05-05T19:02:39.286Z,50.36
2023-05-05T19:05:42.197Z,50.06
2023-05-05T19:08:45.600Z,50.76
2023-05-05T19:11:48.022Z,51.31
2023-05-05T19:14:50.705Z,51.98
2023-05-05T19:17:53.881Z,52.73
2023-05-05T19:20:56.647Z,51.31
2023-05-05T19:23:59.006Z,51.65
2023-05-05T19:27:03.030Z,51.11
2023-05-05T19:30:06.487Z,52.82
2023-05-05T19:33:09.228Z,53.15
2023-05-05T19:36:12.753Z,54.04
2023-05-05T19:39:15.957Z,54.57
2023-05-05T19:42:18.698Z,54.74
2023-05-05T19:45:21.576Z,55.02
2023-05-05T19:48:24.710Z,55.33
2023-05-05T19:51:27.399Z,56.06
2023-05-05T19:54:30.017Z,56.54
2023-05-05T19:57:32.620Z,56.08
2023-05-05T20:00:35.124Z,55.83
2023-05-05T20:03:37.714Z,55.98
2023-05-05T20:06:40.812Z,55.94
2023-05-05T20:09:43.284Z,56.86
2023-05-05T20:12:49.203Z,57.61
2023-05-05T20:15:52.103Z,58.28
2023-05-05T20:18:55.173Z,57.86
2023-05-05T20:22:00.485Z,58.16
2023-05-05T20:25:02.949Z,59.01
2023-05-05T20:28:05.566Z,58.72
2023-05-05T20:31:09.398Z,58.43
2023-05-05T20:34:12.212Z,59.47
2023-05-05T20:37:14.683Z,58.86
2023-05-05T20:40:17.434Z,59.08
2023-05-05T20:43:20.106Z,59.57
2023-05-05T20:46:22.959Z,59.26
2023-05-05T20:49:29.205Z,59.01
2023-05-05T20:52:32.264Z,59.62
2023-05-05T20:55:34.998Z,60.08
2023-05-05T20:58:37.736Z,60.20
2023-05-05T21:01:40.174Z,60.42
2023-05-05T21:04:42.673Z,60.97
2023-05-05T21:07:45.395Z,60.49
2023-05-05T21:10:47.810Z,61.12
2023-05-05T21:13:50.407Z,60.61
2023-05-05T21:16:53.208Z,61.18
2023-05-05T21:20:08.972Z,61.41
2023-05-05T21:23:14.311Z,61.73
2023-05-05T21:26:16.881Z,59.70
2023-05-05T21:29:19.815Z,59.53
2023-05-05T21:32:22.291Z,60.55
2023-05-05T21:35:24.918Z,61.09
2023-05-05T21:38:27.749Z,60.81
2023-05-05T21:41:30.123Z,60.58
2023-05-05T21:44:32.825Z,60.71
2023-05-05T21:47:35.602Z,61.63
2023-05-05T21:50:38.091Z,62.73
2023-05-05T21:53:40.855Z,62.74
2023-05-05T21:56:43.282Z,62.44
2023-05-05T21:59:45.899Z,61.59
2023-05-05T22:02:48.671Z,60.55
2023-05-05T22:05:51.175Z,60.87
2023-05-05T22:08:53.771Z,61.01
2023-05-05T22:11:57.784Z,61.17
2023-05-05T22:15:00.282Z,61.17
2023-05-05T22:18:03.309Z,60.24
2023-05-05T22:21:05.806Z,59.17
2023-05-05T22:24:08.256Z,59.59
2023-05-05T22:27:10.838Z,59.61
2023-05-05T22:30:13.925Z,59.82
2023-05-05T22:33:16.823Z,60.99
2023-05-05T22:36:19.225Z,60.92
2023-05-05T22:39:21.761Z,59.59
2023-05-05T22:42:24.183Z,60.84
2023-05-05T22:45:26.763Z,60.44
2023-05-05T22:48:29.238Z,60.49
2023-05-05T22:51:31.911Z,61.18
2023-05-05T22:54:34.450Z,61.02
2023-05-05T22:57:37.014Z,61.75
2023-05-05T23:00:39.968Z,61.65
2023-05-05T23:03:42.516Z,62.50
2023-05-05T23:06:45.119Z,62.68
2023-05-05T23:09:47.617Z,63.49
2023-05-05T23:12:50.104Z,64.54
2023-05-05T23:15:52.804Z,63.52
2023-05-05T23:18:55.281Z,63.05
2023-05-05T23:21:59.370Z,63.94
2023-05-05T23:25:02.411Z,64.03
2023-05-05T23:28:06.039Z,63.89
2023-05-05T23:31:09.038Z,65.93
2023-05-05T23:34:11.421Z,64.91
2023-05-05T23:37:14.614Z,64.99
2023-05-05T23:40:17.087Z,64.61
2023-05-05T23:43:19.692Z,64.22
2023-05-05T23:46:22.094Z,65.06
2023-05-05T23:49:26.440Z,64.19
2023-05-05T23:52:29.053Z,64.78
2023-05-05T23:55:31.527Z,65.00
2023-05-05T23:58:34.129Z,63.81
